Time;durP1;ratioP1;P1;durP2;ratioP2;P2;SDS_P1;SDS_P2;PMS_P1;PMS_P2;Temp;Humidity;BMP_temperature;BMP_pressure;BME280_temperature;BME280_humidity;BME280_pressure;Samples;Min_cycle;Max_cycle;Signal;HPM_P1;HPM_P2
2022/12/11 00:01:56;;;;;;;100.60;34.80;;;;;;;-0.24;100.00;101175.00;5013134;28;20115;-86
2022/12/11 00:04:22;;;;;;;114.07;33.60;;;;;;;-0.39;100.00;101155.75;5014243;28;20029;-76
2022/12/11 00:06:50;;;;;;;112.57;36.05;;;;;;;-0.38;100.00;101154.88;5014253;28;20045;-76
2022/12/11 00:09:16;;;;;;;105.25;34.72;;;;;;;-0.20;100.00;101181.69;5014168;28;20026;-76
2022/12/11 00:11:42;;;;;;;100.80;33.40;;;;;;;-0.23;100.00;101173.28;5014077;28;20049;-74
2022/12/11 00:14:07;;;;;;;113.07;36.03;;;;;;;-0.18;100.00;101184.25;5014134;28;20466;-75
2022/12/11 00:16:32;;;;;;;115.32;35.00;;;;;;;-0.26;100.00;101161.50;5012933;28;20029;-76
2022/12/11 00:18:58;;;;;;;110.47;35.25;;;;;;;-0.17;100.00;101176.59;5014029;28;20029;-76
2022/12/11 00:21:23;;;;;;;116.15;37.20;;;;;;;-0.15;100.00;101176.59;5014103;28;20465;-85
2022/12/11 00:23:48;;;;;;;112.78;36.60;;;;;;;-0.15;100.00;101172.34;5013696;28;20026;-76
2022/12/11 00:26:14;;;;;;;111.25;35.05;;;;;;;-0.11;100.00;101173.97;5013956;28;20029;-75
2022/12/11 00:28:41;;;;;;;98.35;35.35;;;;;;;-0.10;100.00;101172.25;5013829;28;20104;-76
2022/12/11 00:31:10;;;;;;;105.68;34.90;;;;;;;-0.13;100.00;101175.69;5013967;28;20045;-79
2022/12/11 00:33:35;;;;;;;101.53;34.38;;;;;;;-0.12;100.00;101176.53;5013917;28;20030;-75
2022/12/11 00:36:00;;;;;;;110.00;35.80;;;;;;;-0.14;100.00;101170.63;5013823;28;20076;-76
2022/12/11 00:38:26;;;;;;;101.38;35.05;;;;;;;-0.20;100.00;101165.63;5013499;28;20512;-76
2022/12/11 00:40:51;;;;;;;111.15;35.97;;;;;;;-0.18;100.00;101167.31;4995988;28;20034;-75
2022/12/11 00:43:17;;;;;;;120.05;35.65;;;;;;;-0.21;100.00;101156.34;5013467;28;20178;-76
2022/12/11 00:45:45;;;;;;;111.30;36.60;;;;;;;-0.20;100.00;101160.56;5013556;28;20080;-76
2022/12/11 00:48:12;;;;;;;99.88;34.03;;;;;;;-0.08;100.00;101183.25;5013706;28;20095;-84
2022/12/11 00:50:38;;;;;;;110.35;35.25;;;;;;;-0.28;100.00;101148.00;5013719;28;20038;-84
2022/12/11 00:53:05;;;;;;;109.70;34.50;;;;;;;-0.10;100.00;101172.25;5013215;28;20022;-81
2022/12/11 00:55:31;;;;;;;113.57;35.03;;;;;;;-0.22;100.00;101144.53;5013412;28;20446;-76
2022/12/11 00:57:57;;;;;;;109.15;35.67;;;;;;;-0.18;100.00;101159.69;5013499;28;20075;-76
2022/12/11 01:00:23;;;;;;;109.82;35.42;;;;;;;-0.08;100.00;101171.41;5013415;28;20152;-75
2022/12/11 01:02:48;;;;;;;104.50;35.45;;;;;;;-0.21;100.00;101147.03;5013657;28;20057;-78
2022/12/11 01:05:15;;;;;;;107.03;35.35;;;;;;;-0.10;100.00;101169.72;5013697;28;20461;-75
2022/12/11 01:07:40;;;;;;;105.90;35.30;;;;;;;-0.06;100.00;101168.84;5013210;28;20113;-75
2022/12/11 01:10:24;;;;;;;102.65;34.20;;;;;;;-0.28;100.00;101135.31;5013363;28;20160;-76
2022/12/11 01:12:56;;;;;;;102.70;32.60;;;;;;;0.00;100.00;101168.78;5013396;28;20096;-82
2022/12/11 01:15:24;;;;;;;110.47;35.90;;;;;;;-0.02;100.00;101162.84;5012997;28;20022;-77
2022/12/11 01:17:50;;;;;;;100.32;36.15;;;;;;;-0.12;100.00;101143.53;5013295;28;20489;-76
2022/12/11 01:20:19;;;;;;;98.43;32.88;;;;;;;-0.01;100.00;101169.59;5013093;28;20030;-80
2022/12/11 01:22:45;;;;;;;99.10;32.90;;;;;;;-0.02;100.00;101176.38;5013258;28;20025;-76
2022/12/11 01:25:11;;;;;;;98.95;34.30;;;;;;;-0.03;100.00;101162.00;5013351;28;20535;-75
2022/12/11 01:27:37;;;;;;;96.50;33.40;;;;;;;-0.03;100.00;101159.47;5013268;28;20018;-80
2022/12/11 01:30:04;;;;;;;94.65;33.88;;;;;;;0.04;100.00;101172.94;5011522;28;20482;-75
2022/12/11 01:32:31;;;;;;;101.93;33.50;;;;;;;-0.04;100.00;101155.25;5013291;28;20436;-75
2022/12/11 01:34:56;;;;;;;88.90;33.00;;;;;;;0.06;100.00;101170.38;5013174;28;20018;-76
2022/12/11 01:37:22;;;;;;;91.28;33.40;;;;;;;-0.09;100.00;101146.88;5013020;28;20379;-75
2022/12/11 01:39:47;;;;;;;92.28;31.83;;;;;;;-0.01;100.00;101155.22;4995465;28;20038;-76
2022/12/11 01:42:20;;;;;;;88.82;31.83;;;;;;;0.09;100.00;101178.78;5012320;28;20029;-84
2022/12/11 01:44:45;;;;;;;88.18;32.95;;;;;;;0.11;100.00;101166.91;4995704;28;20095;-84
2022/12/11 01:47:11;;;;;;;89.05;30.30;;;;;;;0.10;100.00;101164.38;5013589;28;20108;-85
2022/12/11 01:49:39;;;;;;;84.43;32.53;;;;;;;0.10;100.00;101161.84;5013172;28;20029;-85
2022/12/11 01:52:15;;;;;;;81.18;31.20;;;;;;;0.13;100.00;101165.19;5013188;28;20362;-86
2022/12/11 01:54:42;;;;;;;93.13;33.17;;;;;;;0.08;100.00;101154.25;5012959;28;20039;-82
2022/12/11 01:57:09;;;;;;;76.95;31.42;;;;;;;0.15;100.00;101165.16;4995071;28;20393;-81
2022/12/11 01:59:40;;;;;;;79.72;29.42;;;;;;;0.16;100.00;101161.75;5013115;28;20034;-85
2022/12/11 02:02:13;;;;;;;80.78;30.15;;;;;;;0.16;100.00;101154.13;5013286;28;20029;-78
2022/12/11 02:04:42;;;;;;;84.57;30.67;;;;;;;0.12;100.00;101149.97;5012883;28;20030;-84
2022/12/11 02:07:08;;;;;;;83.65;31.42;;;;;;;0.04;100.00;101131.47;5012881;28;20038;-84
2022/12/11 02:09:36;;;;;;;79.57;30.65;;;;;;;0.05;100.00;101133.16;5012878;28;20034;-84
2022/12/11 02:12:35;;;;;;;79.00;30.33;;;;;;;0.20;100.00;101150.72;5012759;28;20111;-78
2022/12/11 02:15:47;;;;;;;70.25;30.45;;;;;;;0.21;100.00;101143.06;5012560;28;20152;-84
2022/12/11 02:18:27;;;;;;;79.43;30.90;;;;;;;0.20;100.00;101149.00;4991162;28;20026;-79
2022/12/11 02:21:12;;;;;;;80.30;29.23;;;;;;;0.19;100.00;101141.38;4991220;28;20050;-84
2022/12/11 02:23:59;;;;;;;78.72;30.33;;;;;;;0.09;100.00;101124.59;4990924;28;20038;-84
2022/12/11 02:26:46;;;;;;;71.18;28.00;;;;;;;0.20;100.00;101155.78;4991425;28;20110;-84
2022/12/11 02:29:18;;;;;;;72.78;30.15;;;;;;;0.12;100.00;101135.56;4994404;28;20077;-84
2022/12/11 02:32:05;;;;;;;72.45;28.88;;;;;;;0.16;100.00;101144.81;4994393;28;20367;-83
2022/12/11 02:34:38;;;;;;;72.78;29.42;;;;;;;0.15;100.00;101142.31;4993926;28;20047;-84
2022/12/11 02:37:11;;;;;;;71.70;29.17;;;;;;;0.00;100.00;101120.53;4994272;28;20038;-84
2022/12/11 02:39:40;;;;;;;66.15;29.55;;;;;;;0.04;100.00;101131.47;4994462;28;20101;-84
2022/12/11 02:42:07;;;;;;;70.97;28.83;;;;;;;0.16;100.00;101144.81;4994271;28;20157;-81
2022/12/11 02:44:34;;;;;;;69.78;29.65;;;;;;;0.07;100.00;101129.72;4993704;28;20034;-80
2022/12/11 02:47:02;;;;;;;71.90;28.92;;;;;;;0.15;100.00;101142.31;4994055;28;20443;-84
2022/12/11 02:49:29;;;;;;;65.45;28.30;;;;;;;0.06;100.00;101132.28;5010723;28;20046;-83
2022/12/11 02:51:56;;;;;;;62.55;27.50;;;;;;;-0.01;100.00;101119.66;5015807;28;20036;-83
2022/12/11 02:54:28;;;;;;;66.75;28.75;;;;;;;0.14;100.00;101138.94;5015441;28;20461;-84
2022/12/11 02:57:00;;;;;;;68.55;27.90;;;;;;;0.02;100.00;101116.25;5015573;28;20080;-83
2022/12/11 02:59:34;;;;;;;67.38;27.73;;;;;;;0.15;100.00;101135.53;5015082;28;20036;-84
2022/12/11 03:02:01;;;;;;;67.70;28.20;;;;;;;0.12;100.00;101129.66;5015631;28;20477;-83
2022/12/11 03:04:28;;;;;;;60.00;27.58;;;;;;;0.14;100.00;101133.84;5015618;28;20141;-83
2022/12/11 03:06:58;;;;;;;65.47;28.05;;;;;;;0.13;100.00;101126.25;5015618;28;20042;-84
2022/12/11 03:09:24;;;;;;;67.95;26.60;;;;;;;0.14;100.00;101126.22;5015424;28;20108;-84
2022/12/11 03:11:50;;;;;;;63.97;27.90;;;;;;;0.02;100.00;101107.81;5015226;28;20550;-84
2022/12/11 03:14:16;;;;;;;58.08;26.85;;;;;;;0.15;100.00;101124.53;5015126;28;20112;-83
2022/12/11 03:16:55;;;;;;;64.32;26.65;;;;;;;0.04;100.00;101099.31;5015360;28;20109;-84
2022/12/11 03:19:38;;;;;;;55.05;25.90;;;;;;;0.16;100.00;101116.88;5015171;28;20109;-83
2022/12/11 03:22:25;;;;;;;57.67;25.70;;;;;;;-0.02;100.00;101082.44;5015411;28;20069;-83
2022/12/11 03:24:58;;;;;;;60.53;25.80;;;;;;;0.17;100.00;101117.72;5015164;28;20022;-82
2022/12/11 03:27:30;;;;;;;60.72;26.23;;;;;;;0.17;100.00;101110.94;5015162;28;20036;-85
2022/12/11 03:30:01;;;;;;;54.40;24.58;;;;;;;0.16;100.00;101116.88;5014939;28;20076;-83
2022/12/11 03:32:34;;;;;;;53.40;25.60;;;;;;;0.14;100.00;101118.63;4997380;28;20133;-84
2022/12/11 03:35:19;;;;;;;51.08;24.23;;;;;;;0.12;100.00;101116.97;5014883;28;20033;-84
2022/12/11 03:37:46;;;;;;;54.25;24.10;;;;;;;0.03;100.00;101101.88;5014492;28;20029;-82
2022/12/11 03:40:18;;;;;;;50.85;24.95;;;;;;;0.07;100.00;101111.09;5014648;28;20038;-82
2022/12/11 03:42:47;;;;;;;49.33;22.77;;;;;;;0.03;100.00;101105.25;5015194;28;20069;-82
2022/12/11 03:45:14;;;;;;;50.08;24.13;;;;;;;0.07;100.00;101117.03;5014609;28;20077;-80
2022/12/11 03:47:41;;;;;;;46.70;23.83;;;;;;;0.06;100.00;101117.88;5014551;28;20022;-83
2022/12/11 03:50:09;;;;;;;52.25;24.90;;;;;;;0.01;100.00;101106.13;5015146;28;20107;-79
2022/12/11 03:52:38;;;;;;;51.92;24.25;;;;;;;0.07;100.00;101123.81;4997125;28;20100;-83
2022/12/11 03:55:05;;;;;;;50.63;23.75;;;;;;;-0.12;100.00;101082.63;5014175;28;20050;-83
2022/12/11 03:57:34;;;;;;;50.88;23.88;;;;;;;0.07;100.00;101109.41;5014419;28;20041;-79
2022/12/11 03:59:59;;;;;;;44.33;22.40;;;;;;;0.03;100.00;101106.94;5014313;28;20038;-83
2022/12/11 04:02:25;;;;;;;41.15;21.30;;;;;;;0.04;100.00;101103.53;5014288;28;20033;-83
2022/12/11 04:04:50;;;;;;;41.90;20.38;;;;;;;0.01;100.00;101104.44;5014318;28;20088;-83
2022/12/11 04:07:16;;;;;;;41.40;19.83;;;;;;;-0.16;100.00;101073.38;5014361;28;20065;-81
2022/12/11 04:09:41;;;;;;;42.05;20.05;;;;;;;0.01;100.00;101093.44;5014244;28;20026;-83
2022/12/11 04:12:06;;;;;;;42.80;20.88;;;;;;;0.04;100.00;101098.47;5013260;28;20029;-83
2022/12/11 04:24:13;;;;;;;38.70;19.73;;;;;;;0.04;100.00;101101.84;5014259;28;20048;-83
2022/12/11 04:25:29;;;;;;;36.67;20.08;;;;;;;0.02;100.00;101097.66;5014148;28;20037;-82
2022/12/11 04:27:54;;;;;;;40.88;20.48;;;;;;;-0.12;100.00;101080.06;5014085;28;20026;-81
2022/12/11 04:30:23;;;;;;;40.95;21.17;;;;;;;0.03;100.00;101104.41;5013801;28;20121;-81
2022/12/11 04:32:48;;;;;;;38.00;19.73;;;;;;;0.01;100.00;101106.97;5013954;28;20063;-82
2022/12/11 04:35:14;;;;;;;40.58;20.85;;;;;;;-0.09;100.00;101085.97;5013910;28;20469;-82
2022/12/11 04:37:40;;;;;;;35.25;19.52;;;;;;;-0.01;100.00;101101.91;5013701;28;20030;-83
2022/12/11 04:40:09;;;;;;;37.65;20.25;;;;;;;-0.02;100.00;101101.91;5013639;28;20025;-83
2022/12/11 04:42:34;;;;;;;37.35;19.20;;;;;;;-0.01;100.00;101101.91;5013912;28;20389;-81
2022/12/11 04:44:59;;;;;;;36.45;19.40;;;;;;;-0.01;100.00;101093.44;5013766;28;20018;-83
2022/12/11 04:47:25;;;;;;;36.03;19.25;;;;;;;-0.28;100.00;101048.19;5013611;28;20097;-83
2022/12/11 04:49:50;;;;;;;35.25;18.73;;;;;;;-0.04;100.00;101093.50;5012916;28;20022;-84
2022/12/11 04:52:16;;;;;;;35.75;18.35;;;;;;;0.00;100.00;101100.22;5013562;28;20080;-83
2022/12/11 04:54:42;;;;;;;31.25;17.75;;;;;;;-0.08;100.00;101071.56;5013342;28;20050;-79
2022/12/11 04:57:07;;;;;;;31.27;17.85;;;;;;;-0.17;100.00;101062.41;5013554;28;20496;-82
2022/12/11 04:59:32;;;;;;;33.13;18.45;;;;;;;0.03;100.00;101091.72;5013440;28;20021;-85
2022/12/11 05:01:58;;;;;;;35.70;18.00;;;;;;;-0.06;100.00;101085.06;5013484;28;20018;-84
2022/12/11 05:04:23;;;;;;;31.77;17.63;;;;;;;-0.19;100.00;101060.75;5013367;28;20389;-80
2022/12/11 05:06:49;;;;;;;34.72;18.38;;;;;;;0.04;100.00;101099.31;5013561;28;20029;-83
2022/12/11 05:09:15;;;;;;;34.72;17.58;;;;;;;0.05;100.00;101092.53;5013390;28;20125;-81
2022/12/11 05:11:40;;;;;;;33.15;17.98;;;;;;;0.05;100.00;101097.59;5013149;28;20077;-83
2022/12/11 05:14:06;;;;;;;34.00;18.10;;;;;;;0.04;100.00;101091.69;5013589;28;20053;-81
2022/12/11 05:16:31;;;;;;;33.55;17.33;;;;;;;0.07;100.00;101095.88;5012147;28;20503;-83
2022/12/11 05:18:56;;;;;;;34.67;17.70;;;;;;;0.06;100.00;101095.03;4995545;28;20034;-83
2022/12/11 05:21:22;;;;;;;35.00;17.02;;;;;;;0.08;100.00;101093.31;5013224;28;20466;-81
2022/12/11 05:23:47;;;;;;;30.27;16.20;;;;;;;0.06;100.00;101092.50;5013432;28;20037;-84
2022/12/11 05:26:15;;;;;;;33.33;16.38;;;;;;;0.07;100.00;101091.63;5013150;28;20026;-83
2022/12/11 05:28:42;;;;;;;31.00;15.85;;;;;;;0.08;100.00;101098.38;5013236;28;20440;-84
2022/12/11 05:31:12;;;;;;;31.52;16.27;;;;;;;0.08;100.00;101083.16;5013323;28;20054;-84
2022/12/11 05:33:38;;;;;;;29.08;15.60;;;;;;;0.10;100.00;101085.66;5012744;28;20026;-84
2022/12/11 05:36:03;;;;;;;32.38;16.45;;;;;;;0.05;100.00;101073.06;5013050;28;20037;-83
2022/12/11 05:38:29;;;;;;;28.77;16.48;;;;;;;0.03;100.00;101058.72;5013289;28;20034;-84
2022/12/11 05:41:00;;;;;;;28.63;16.00;;;;;;;0.09;100.00;101072.13;4995357;28;20029;-83
2022/12/11 05:43:27;;;;;;;29.30;15.35;;;;;;;-0.10;100.00;101038.59;5013108;28;20025;-83
2022/12/11 05:45:53;;;;;;;29.90;15.40;;;;;;;-0.11;100.00;101044.50;5013092;28;20469;-84
2022/12/11 05:48:18;;;;;;;29.65;15.82;;;;;;;0.08;100.00;101067.91;5012882;28;20536;-85
2022/12/11 05:50:43;;;;;;;28.17;14.90;;;;;;;0.09;100.00;101063.66;5013080;28;20018;-84
2022/12/11 05:53:09;;;;;;;28.23;16.30;;;;;;;0.08;100.00;101074.69;5013248;28;20358;-84
2022/12/11 05:55:34;;;;;;;28.70;15.13;;;;;;;0.06;100.00;101079.81;5012629;28;20516;-83
2022/12/11 05:58:00;;;;;;;29.00;15.50;;;;;;;-0.26;100.00;101029.53;5012991;28;20393;-84
2022/12/11 06:00:25;;;;;;;31.33;15.55;;;;;;;-0.18;100.00;101050.56;5012921;28;20092;-84
2022/12/11 06:02:50;;;;;;;27.42;14.95;;;;;;;-0.05;100.00;101074.88;5016171;28;20107;-83
2022/12/11 06:05:16;;;;;;;29.33;15.70;;;;;;;0.05;100.00;101083.19;5016725;28;20490;-83
2022/12/11 06:07:41;;;;;;;28.52;15.70;;;;;;;-0.03;100.00;101074.88;5016573;28;20148;-85
2022/12/11 06:10:07;;;;;;;32.78;15.57;;;;;;;-0.03;100.00;101080.78;5016709;28;20022;-84
2022/12/11 06:12:32;;;;;;;28.70;14.90;;;;;;;0.10;100.00;101090.72;5016482;28;20113;-84
2022/12/11 06:14:57;;;;;;;28.27;14.90;;;;;;;-0.03;100.00;101068.09;5016694;28;20034;-85
2022/12/11 06:17:22;;;;;;;28.40;15.15;;;;;;;-0.05;100.00;101072.34;5016437;28;20456;-84
2022/12/11 06:19:48;;;;;;;29.25;15.57;;;;;;;0.09;100.00;101087.34;5016646;28;20063;-85
2022/12/11 06:22:13;;;;;;;29.38;15.23;;;;;;;0.07;100.00;101083.19;5016565;28;20084;-84
2022/12/11 06:24:38;;;;;;;29.98;15.45;;;;;;;0.08;100.00;101082.31;5016561;28;20032;-85
2022/12/11 06:27:04;;;;;;;27.63;15.00;;;;;;;0.07;100.00;101075.56;5016405;28;20488;-84
2022/12/11 06:29:29;;;;;;;28.55;14.80;;;;;;;0.11;100.00;101082.28;5015995;28;20029;-85
2022/12/11 06:31:54;;;;;;;27.58;14.38;;;;;;;0.11;100.00;101072.97;5016504;28;20034;-83
2022/12/11 06:34:22;;;;;;;29.02;15.20;;;;;;;0.13;100.00;101078.84;5015948;28;20069;-85
2022/12/11 06:36:47;;;;;;;28.60;15.20;;;;;;;0.14;100.00;101080.53;5016257;28;20036;-84
2022/12/11 06:39:12;;;;;;;27.90;15.25;;;;;;;-0.13;100.00;101036.09;5016068;28;20468;-83
2022/12/11 06:41:38;;;;;;;29.52;15.77;;;;;;;0.14;100.00;101080.53;5016002;28;20033;-84
2022/12/11 06:44:03;;;;;;;27.13;15.32;;;;;;;0.08;100.00;101065.38;5015911;28;20029;-85
2022/12/11 06:46:28;;;;;;;28.98;15.00;;;;;;;0.08;100.00;101062.00;5016025;28;20022;-85
2022/12/11 06:48:54;;;;;;;29.27;14.45;;;;;;;0.19;100.00;101078.72;5015988;28;20044;-84
2022/12/11 06:51:21;;;;;;;27.55;14.98;;;;;;;0.04;100.00;101057.84;5015935;28;20029;-82
2022/12/11 06:53:55;;;;;;;31.08;14.93;;;;;;;0.17;100.00;101077.91;5014579;28;20489;-85
2022/12/11 06:56:22;;;;;;;28.27;15.27;;;;;;;0.23;100.00;101079.53;5015528;28;20046;-84
2022/12/11 06:58:48;;;;;;;26.65;14.70;;;;;;;0.20;100.00;101061.81;5015662;28;20072;-85
2022/12/11 07:01:17;;;;;;;29.45;15.32;;;;;;;0.17;100.00;101057.59;5015790;28;20034;-84
2022/12/11 07:03:42;;;;;;;29.30;16.85;;;;;;;-0.04;100.00;101018.19;5015620;28;20057;-83
2022/12/11 07:06:08;;;;;;;30.00;15.82;;;;;;;0.20;100.00;101064.38;5015656;28;20094;-86
2022/12/11 07:08:33;;;;;;;28.63;15.77;;;;;;;0.08;100.00;101044.22;5015513;28;20117;-83
2022/12/11 07:11:11;;;;;;;30.75;16.02;;;;;;;0.25;100.00;101077.81;5015442;28;20044;-76
2022/12/11 07:13:37;;;;;;;29.10;15.85;;;;;;;0.04;100.00;101045.16;5014617;28;20022;-85
2022/12/11 07:16:09;;;;;;;29.15;15.35;;;;;;;0.23;100.00;101077.84;5015503;28;20026;-85
2022/12/11 07:18:39;;;;;;;29.50;15.63;;;;;;;0.25;100.00;101081.19;5015171;28;20068;-86
2022/12/11 07:21:05;;;;;;;29.92;16.52;;;;;;;0.25;100.00;101082.88;5015296;28;20034;-86
2022/12/11 07:23:31;;;;;;;30.70;16.45;;;;;;;0.28;100.00;101090.44;5015472;28;20062;-82
2022/12/11 07:25:56;;;;;;;28.67;16.02;;;;;;;0.19;100.00;101071.13;5015004;28;20056;-85
2022/12/11 07:28:22;;;;;;;31.92;15.80;;;;;;;0.28;100.00;101091.28;5015048;28;20018;-83
2022/12/11 07:30:47;;;;;;;29.85;16.35;;;;;;;0.27;100.00;101096.38;5015146;28;20053;-79
2022/12/11 07:33:13;;;;;;;31.83;17.27;;;;;;;0.22;100.00;101081.25;5015006;28;20528;-82
2022/12/11 07:35:38;;;;;;;29.00;16.05;;;;;;;0.02;100.00;101045.19;5014829;28;20489;-84
2022/12/11 07:38:04;;;;;;;29.02;16.95;;;;;;;0.18;100.00;101074.53;5014913;28;20029;-84
2022/12/11 07:40:29;;;;;;;29.38;16.63;;;;;;;0.29;100.00;101092.13;5013617;28;20044;-83
2022/12/11 07:42:54;;;;;;;30.33;16.65;;;;;;;0.33;100.00;101103.09;5014848;28;20541;-83
2022/12/11 07:45:20;;;;;;;29.75;16.67;;;;;;;0.24;100.00;101093.91;5014659;28;20026;-83
2022/12/11 07:47:45;;;;;;;30.50;16.33;;;;;;;0.33;100.00;101101.38;5014954;28;20100;-81
2022/12/11 07:50:10;;;;;;;28.90;16.20;;;;;;;0.33;100.00;101090.38;5014307;28;20498;-80
2022/12/11 07:52:36;;;;;;;33.53;18.42;;;;;;;0.33;100.00;101091.22;5014434;28;20022;-83
2022/12/11 07:55:02;;;;;;;29.88;17.00;;;;;;;0.22;100.00;101078.69;5014495;28;20077;-75
2022/12/11 07:57:28;;;;;;;32.15;17.42;;;;;;;0.34;100.00;101099.69;5014299;28;20045;-79
2022/12/11 07:59:54;;;;;;;33.38;17.90;;;;;;;0.28;100.00;101096.38;5014461;28;20029;-77
2022/12/11 08:02:20;;;;;;;30.48;17.38;;;;;;;0.24;100.00;101083.75;5014269;28;20030;-80
2022/12/11 08:04:46;;;;;;;33.00;18.10;;;;;;;0.20;100.00;101066.91;5014266;28;20470;-78
2022/12/11 08:07:11;;;;;;;31.33;16.40;;;;;;;0.40;100.00;101092.81;5014568;28;20014;-75
2022/12/11 08:09:37;;;;;;;32.03;16.50;;;;;;;0.26;100.00;101070.16;5014274;28;20108;-85
2022/12/11 08:12:02;;;;;;;33.53;17.90;;;;;;;0.24;100.00;101064.28;4996625;28;20022;-77
2022/12/11 08:14:28;;;;;;;35.60;18.10;;;;;;;0.42;100.00;101096.16;5014172;28;20465;-84
2022/12/11 08:16:53;;;;;;;31.92;17.08;;;;;;;0.43;100.00;101089.38;5014437;28;20029;-82
2022/12/11 08:19:18;;;;;;;33.67;17.75;;;;;;;0.37;100.00;101079.28;5013879;28;20643;-84
2022/12/11 08:21:44;;;;;;;32.38;18.02;;;;;;;0.46;100.00;101094.38;5014061;28;20049;-84
2022/12/11 08:24:09;;;;;;;33.63;18.13;;;;;;;0.40;100.00;101086.88;5014288;28;20021;-84
2022/12/11 08:26:34;;;;;;;32.95;17.42;;;;;;;0.44;100.00;101085.97;5014282;28;20026;-83
2022/12/11 08:29:01;;;;;;;32.30;17.92;;;;;;;0.37;100.00;101075.06;5013940;28;20026;-81
2022/12/11 08:31:26;;;;;;;31.17;17.10;;;;;;;0.47;100.00;101090.97;5013962;28;20045;-82
2022/12/11 08:33:54;;;;;;;32.28;17.88;;;;;;;0.50;100.00;101098.56;5013955;28;20030;-84
2022/12/11 08:36:21;;;;;;;31.08;16.98;;;;;;;0.48;100.00;101093.50;5013442;28;20034;-82
2022/12/11 08:38:47;;;;;;;32.47;17.65;;;;;;;0.51;100.00;101092.63;5013999;28;20374;-83
2022/12/11 08:41:18;;;;;;;33.20;19.20;;;;;;;0.58;100.00;101094.16;5013773;28;20038;-81
2022/12/11 08:43:43;;;;;;;32.33;17.92;;;;;;;0.57;100.00;101095.03;5013677;28;20393;-83
2022/12/11 08:46:10;;;;;;;32.22;17.58;;;;;;;0.55;100.00;101096.78;5013860;28;20026;-84
2022/12/11 08:48:37;;;;;;;31.60;17.98;;;;;;;0.51;100.00;101098.53;5013990;28;20022;-83
2022/12/11 08:51:04;;;;;;;33.17;18.85;;;;;;;0.50;100.00;101088.41;5012000;28;20021;-81
2022/12/11 08:53:31;;;;;;;32.35;17.95;;;;;;;0.53;100.00;101088.34;5013586;28;20030;-81
2022/12/11 08:56:04;;;;;;;34.45;18.58;;;;;;;0.50;100.00;101080.78;5013419;28;20092;-81
2022/12/11 08:58:29;;;;;;;34.38;18.17;;;;;;;0.51;100.00;101082.47;5013287;28;20026;-77
2022/12/11 09:00:55;;;;;;;34.78;19.10;;;;;;;0.50;100.00;101074.00;5013434;28;20037;-81
2022/12/11 09:03:21;;;;;;;32.78;18.67;;;;;;;0.54;100.00;101080.69;5013370;28;20036;-82
2022/12/11 09:05:46;;;;;;;33.75;18.42;;;;;;;0.55;100.00;101078.97;5013369;28;20018;-83
2022/12/11 09:08:11;;;;;;;35.05;18.55;;;;;;;0.56;100.00;101085.75;5013470;28;20389;-84
2022/12/11 09:10:37;;;;;;;34.75;18.33;;;;;;;0.56;100.00;101078.13;5012196;28;20469;-85
2022/12/11 09:13:02;;;;;;;35.40;19.42;;;;;;;0.57;100.00;101072.16;5013342;28;20030;-83
2022/12/11 09:15:27;;;;;;;33.80;17.02;;;;;;;0.61;100.00;101073.81;5013220;28;20033;-84
2022/12/11 09:17:53;;;;;;;32.92;17.83;;;;;;;0.34;100.00;101031.09;5013271;28;20032;-85
2022/12/11 09:20:18;;;;;;;33.25;17.58;;;;;;;0.60;100.00;101074.69;5012998;28;20108;-84
2022/12/11 09:22:43;;;;;;;34.65;19.00;;;;;;;0.60;100.00;101066.22;5013433;28;20033;-83
2022/12/11 09:25:09;;;;;;;37.25;18.42;;;;;;;0.69;100.00;101077.06;5013301;28;20097;-85
2022/12/11 09:27:34;;;;;;;34.72;18.23;;;;;;;0.60;100.00;101059.44;4995550;28;20509;-84
2022/12/11 09:29:59;;;;;;;38.38;19.30;;;;;;;0.74;100.00;101079.50;5013137;28;20022;-83
2022/12/11 09:32:25;;;;;;;33.53;18.20;;;;;;;0.77;100.00;101087.06;5012988;28;20038;-86
2022/12/11 09:34:52;;;;;;;33.90;18.00;;;;;;;0.76;100.00;101077.75;5013278;28;20109;-86
2022/12/11 09:37:17;;;;;;;34.78;19.10;;;;;;;0.75;100.00;101082.00;5015832;28;20030;-86
2022/12/11 09:39:43;;;;;;;32.10;17.90;;;;;;;0.75;100.00;101076.91;5017067;28;20537;-81
2022/12/11 09:42:24;;;;;;;35.92;18.90;;;;;;;0.73;100.00;101068.50;5017135;28;20018;-82
2022/12/11 09:44:56;;;;;;;33.73;18.17;;;;;;;0.61;100.00;101056.00;4999305;28;20453;-84
2022/12/11 09:47:33;;;;;;;34.53;17.83;;;;;;;0.77;100.00;101082.81;5017058;28;20048;-85
2022/12/11 09:50:12;;;;;;;35.33;18.08;;;;;;;0.74;100.00;101085.41;5017193;28;20030;-81
2022/12/11 09:53:07;;;;;;;33.13;18.17;;;;;;;0.76;100.00;101070.13;5016852;28;20030;-83
2022/12/11 09:55:45;;;;;;;34.42;17.63;;;;;;;0.75;100.00;101071.84;5016727;28;20500;-81
2022/12/11 09:58:37;;;;;;;34.95;18.85;;;;;;;0.76;100.00;101076.03;5016812;28;20029;-80
2022/12/11 10:01:30;;;;;;;34.78;17.85;;;;;;;0.76;100.00;101075.22;5016630;28;20077;-83
2022/12/11 10:04:29;;;;;;;33.50;18.00;;;;;;;0.78;100.00;101076.84;5016969;28;20436;-84
2022/12/11 10:07:02;;;;;;;38.20;18.48;;;;;;;0.71;100.00;101057.53;5016596;28;20436;-83
2022/12/11 10:09:42;;;;;;;36.85;19.25;;;;;;;0.76;100.00;101073.50;5016688;28;20092;-85
2022/12/11 10:12:38;;;;;;;36.30;19.40;;;;;;;0.77;100.00;101072.63;5016541;28;20026;-82
2022/12/11 10:15:22;;;;;;;34.45;17.77;;;;;;;0.66;100.00;101046.59;4994845;28;20042;-83
2022/12/11 10:17:50;;;;;;;37.22;18.70;;;;;;;0.80;100.00;101075.16;4994817;28;20469;-85
2022/12/11 10:20:21;;;;;;;35.30;18.70;;;;;;;0.79;100.00;101075.19;4994710;28;20494;-84
2022/12/11 10:22:49;;;;;;;35.45;18.90;;;;;;;0.78;100.00;101059.06;4994510;28;20394;-85
2022/12/11 10:25:25;;;;;;;37.33;20.05;;;;;;;0.90;100.00;101057.19;4994838;28;20593;-85
2022/12/11 10:27:51;;;;;;;39.15;20.63;;;;;;;0.65;100.00;101011.03;4994433;28;20162;-84
2022/12/11 10:30:23;;;;;;;38.22;19.90;;;;;;;0.74;100.00;101033.75;4994542;28;20046;-84
2022/12/11 10:33:20;;;;;;;36.55;20.40;;;;;;;0.95;100.00;101065.53;4994653;28;20030;-81
2022/12/11 10:35:56;;;;;;;36.22;19.50;;;;;;;0.95;100.00;101048.56;4991291;28;20566;-82
2022/12/11 10:38:29;;;;;;;37.63;19.70;;;;;;;1.03;100.00;101063.69;4994135;28;20038;-84
2022/12/11 10:41:02;;;;;;;39.58;20.25;;;;;;;0.94;100.00;101035.91;4994320;28;20497;-79
2022/12/11 10:43:40;;;;;;;39.83;21.08;;;;;;;1.11;100.00;101060.13;4994204;28;20409;-82
2022/12/11 10:46:14;;;;;;;36.45;19.60;;;;;;;0.99;100.00;101037.50;4993149;28;20038;-84
2022/12/11 10:48:46;;;;;;;34.95;19.08;;;;;;;1.04;100.00;101047.56;4993055;28;20046;-85
2022/12/11 10:51:13;;;;;;;35.42;18.65;;;;;;;1.04;100.00;101040.75;4995141;28;20133;-80
2022/12/11 10:53:39;;;;;;;37.00;19.10;;;;;;;0.91;100.00;101006.28;4996003;28;20109;-84
2022/12/11 10:56:05;;;;;;;34.53;17.45;;;;;;;1.17;100.00;101054.06;4995460;28;20050;-82
2022/12/11 10:58:32;;;;;;;35.47;19.27;;;;;;;1.10;100.00;101043.19;4996084;28;20051;-83
2022/12/11 11:01:14;;;;;;;33.63;17.67;;;;;;;1.14;100.00;101051.59;4996150;28;20044;-85
2022/12/11 11:03:58;;;;;;;35.33;18.35;;;;;;;1.17;100.00;101051.50;4996203;28;20037;-83
2022/12/11 11:06:25;;;;;;;35.97;17.60;;;;;;;1.15;100.00;101043.09;4996020;28;20113;-85
2022/12/11 11:08:56;;;;;;;36.80;17.90;;;;;;;0.90;100.00;101008.88;4995679;28;20105;-85
2022/12/11 11:11:21;;;;;;;32.17;17.27;;;;;;;1.11;99.85;101046.56;4995806;28;20027;-84
2022/12/11 11:13:47;;;;;;;34.90;17.95;;;;;;;1.12;100.00;101045.69;4996132;28;20089;-84
2022/12/11 11:16:16;;;;;;;31.77;16.92;;;;;;;1.12;100.00;101032.97;4994492;28;20054;-85
2022/12/11 11:18:51;;;;;;;33.53;17.02;;;;;;;1.06;100.00;101028.00;4995758;28;20414;-83
2022/12/11 11:21:19;;;;;;;29.48;17.15;;;;;;;1.22;100.00;101039.56;4995567;28;20022;-85
2022/12/11 11:23:44;;;;;;;35.15;19.58;;;;;;;1.21;100.00;101039.59;4995543;28;20030;-82